Portada
METAR-TAF:

METAR-TAF

Aeropuertos :

Skövde, Suecia

latitud: 58-27N, longitud: 013-58E, altitud: 98 m

Observación

El informe se hizo hace 43 minutos, a las 01:50 UTC
Viento 9 kt del oeste, variando entre oeste-suroeste y oeste-noroeste
Temperatura 3°C
Humedad 60%
Presión 986 hPa
Visibilidad 10 km o más

METAR: ESGR 030150Z AUTO 27009KT 240V300 9999 NCD 03/M04 Q0986

Hora: 04:33 (02:33 UTC)


TAF: falta

Observaciones y pronósticos meteorológicos de más de 4000 aeropuertos (mensajes METAR y TAF).

Los puntos amarillos y rojos representan las estaciones disponibles.

Ponga el ratón en el punto deseado para ver el nombre de la estación.

Haga clic para ver las observaciones y los pronósticos meteorológicos.

Para cambiar el mapa : haga clic en los botones verdes con una cruz de color negro para hacer un zoom, en el botón verde con un guión para alejar o en las flechas verdes para mapas adyacentes.


METAR-TAF: